Garland Springs, Arkansas
Current Conditions -  °F | °C
As of 5:56 PM on Saturday 20 Dec 2014 (Local Time) from KSRC Reporting Station
Overcast Overcast  
Wind Chill: 39°   Ceiling: 5000
Heat Index: 42°   Visibility: 10mi
Dew Point: 36°   Wind: 5mph
Humidity: 79%   Direction: 70°ENE
Pressure: 30.26"   Gusts: NA
Location:  35.2847°N, 92.1468°W
Report Text: KSRC 202356Z AUTO 07004KT 10SM OVC050 06/02 A3026 RMK AO2 SLPNO T00560022 10078 20056 51005 TSNO
Loading
Personal Weather Stations






























Interactive Weather Map New forecast layout! Learn more

10-Day Weather Forecast

Advertisements
Track Severe Weather on mobile